sensor_id;sensor_type;location;lat;lon;timestamp;P1;durP1;ratioP1;P2;durP2;ratioP2
928;SDS011;451;47.988;7.842;2024-02-28T00:08:58;15.43;;;9.63;;
928;SDS011;451;47.988;7.842;2024-02-28T00:18:07;12.70;;;8.40;;
928;SDS011;451;47.988;7.842;2024-02-28T00:27:12;15.40;;;9.10;;
928;SDS011;451;47.988;7.842;2024-02-28T00:36:17;15.70;;;9.33;;
928;SDS011;451;47.988;7.842;2024-02-28T00:45:24;17.33;;;9.97;;
928;SDS011;451;47.988;7.842;2024-02-28T00:54:38;15.97;;;10.27;;
928;SDS011;451;47.988;7.842;2024-02-28T01:03:46;20.50;;;11.20;;
928;SDS011;451;47.988;7.842;2024-02-28T01:12:51;15.77;;;9.50;;
928;SDS011;451;47.988;7.842;2024-02-28T01:21:55;17.57;;;10.70;;
928;SDS011;451;47.988;7.842;2024-02-28T01:31:00;19.10;;;10.10;;
928;SDS011;451;47.988;7.842;2024-02-28T01:40:05;16.83;;;10.17;;
928;SDS011;451;47.988;7.842;2024-02-28T01:49:17;22.00;;;11.30;;
928;SDS011;451;47.988;7.842;2024-02-28T01:58:21;21.50;;;9.30;;
928;SDS011;451;47.988;7.842;2024-02-28T02:07:27;17.03;;;8.77;;
928;SDS011;451;47.988;7.842;2024-02-28T02:16:37;20.40;;;9.63;;
928;SDS011;451;47.988;7.842;2024-02-28T02:25:45;21.67;;;9.13;;
928;SDS011;451;47.988;7.842;2024-02-28T02:34:52;19.40;;;10.87;;
928;SDS011;451;47.988;7.842;2024-02-28T02:43:59;18.63;;;11.47;;
928;SDS011;451;47.988;7.842;2024-02-28T02:53:02;19.73;;;11.10;;
928;SDS011;451;47.988;7.842;2024-02-28T03:02:25;16.50;;;11.00;;
928;SDS011;451;47.988;7.842;2024-02-28T03:11:29;25.33;;;12.70;;
928;SDS011;451;47.988;7.842;2024-02-28T03:20:34;19.67;;;10.53;;
928;SDS011;451;47.988;7.842;2024-02-28T03:29:40;18.00;;;8.67;;
928;SDS011;451;47.988;7.842;2024-02-28T03:38:47;15.80;;;9.00;;
928;SDS011;451;47.988;7.842;2024-02-28T03:47:51;17.43;;;9.07;;
928;SDS011;451;47.988;7.842;2024-02-28T03:56:59;18.60;;;10.10;;
928;SDS011;451;47.988;7.842;2024-02-28T04:06:02;18.87;;;9.90;;
928;SDS011;451;47.988;7.842;2024-02-28T04:15:15;18.83;;;10.63;;
928;SDS011;451;47.988;7.842;2024-02-28T04:24:19;18.60;;;8.30;;
928;SDS011;451;47.988;7.842;2024-02-28T04:33:27;17.53;;;10.63;;
928;SDS011;451;47.988;7.842;2024-02-28T04:42:31;21.57;;;11.17;;
928;SDS011;451;47.988;7.842;2024-02-28T04:51:39;19.53;;;9.30;;
928;SDS011;451;47.988;7.842;2024-02-28T05:00:43;16.40;;;9.90;;
928;SDS011;451;47.988;7.842;2024-02-28T05:09:49;19.87;;;9.97;;
928;SDS011;451;47.988;7.842;2024-02-28T05:18:52;16.40;;;9.43;;
928;SDS011;451;47.988;7.842;2024-02-28T05:27:58;21.53;;;9.27;;
928;SDS011;451;47.988;7.842;2024-02-28T05:37:01;18.23;;;8.80;;
928;SDS011;451;47.988;7.842;2024-02-28T05:46:06;19.27;;;9.77;;
928;SDS011;451;47.988;7.842;2024-02-28T05:55:10;25.30;;;10.43;;
928;SDS011;451;47.988;7.842;2024-02-28T06:04:19;13.70;;;8.30;;
928;SDS011;451;47.988;7.842;2024-02-28T06:13:22;21.77;;;11.77;;
928;SDS011;451;47.988;7.842;2024-02-28T06:22:44;16.10;;;9.90;;
928;SDS011;451;47.988;7.842;2024-02-28T06:31:53;14.87;;;10.60;;
928;SDS011;451;47.988;7.842;2024-02-28T06:40:58;15.43;;;9.37;;
928;SDS011;451;47.988;7.842;2024-02-28T06:50:02;14.60;;;8.93;;
928;SDS011;451;47.988;7.842;2024-02-28T06:59:13;26.07;;;13.00;;
928;SDS011;451;47.988;7.842;2024-02-28T07:08:23;16.20;;;10.30;;
928;SDS011;451;47.988;7.842;2024-02-28T07:17:34;20.47;;;10.60;;
928;SDS011;451;47.988;7.842;2024-02-28T07:26:45;19.77;;;9.40;;
928;SDS011;451;47.988;7.842;2024-02-28T07:35:55;21.73;;;10.43;;
928;SDS011;451;47.988;7.842;2024-02-28T07:45:03;20.67;;;10.50;;
928;SDS011;451;47.988;7.842;2024-02-28T07:54:13;23.10;;;9.83;;
928;SDS011;451;47.988;7.842;2024-02-28T08:03:18;22.07;;;11.00;;
928;SDS011;451;47.988;7.842;2024-02-28T08:12:33;15.23;;;9.30;;
928;SDS011;451;47.988;7.842;2024-02-28T08:21:38;23.30;;;9.83;;
928;SDS011;451;47.988;7.842;2024-02-28T08:30:48;27.47;;;13.07;;
928;SDS011;451;47.988;7.842;2024-02-28T08:39:52;25.27;;;12.27;;
928;SDS011;451;47.988;7.842;2024-02-28T08:49:02;21.10;;;11.23;;
928;SDS011;451;47.988;7.842;2024-02-28T08:58:07;34.00;;;12.93;;
928;SDS011;451;47.988;7.842;2024-02-28T09:07:12;25.73;;;12.10;;
928;SDS011;451;47.988;7.842;2024-02-28T09:16:23;27.93;;;11.67;;
928;SDS011;451;47.988;7.842;2024-02-28T09:25:29;26.23;;;12.90;;
928;SDS011;451;47.988;7.842;2024-02-28T09:34:42;23.20;;;14.00;;
928;SDS011;451;47.988;7.842;2024-02-28T09:43:55;38.00;;;14.70;;
928;SDS011;451;47.988;7.842;2024-02-28T09:53:03;19.30;;;12.60;;
928;SDS011;451;47.988;7.842;2024-02-28T10:02:12;23.47;;;13.40;;
928;SDS011;451;47.988;7.842;2024-02-28T10:11:22;34.70;;;14.80;;
928;SDS011;451;47.988;7.842;2024-02-28T10:31:00;27.20;;;12.80;;
928;SDS011;451;47.988;7.842;2024-02-28T10:40:08;25.47;;;12.70;;
928;SDS011;451;47.988;7.842;2024-02-28T10:49:30;23.03;;;10.27;;
928;SDS011;451;47.988;7.842;2024-02-28T10:58:36;19.20;;;10.60;;
928;SDS011;451;47.988;7.842;2024-02-28T11:07:50;24.27;;;13.33;;
928;SDS011;451;47.988;7.842;2024-02-28T11:17:08;22.30;;;11.50;;
928;SDS011;451;47.988;7.842;2024-02-28T11:26:18;19.33;;;12.87;;
928;SDS011;451;47.988;7.842;2024-02-28T11:35:26;23.37;;;12.00;;
928;SDS011;451;47.988;7.842;2024-02-28T11:44:35;18.43;;;10.10;;
928;SDS011;451;47.988;7.842;2024-02-28T11:53:42;16.50;;;10.00;;
928;SDS011;451;47.988;7.842;2024-02-28T12:02:50;15.50;;;9.03;;
928;SDS011;451;47.988;7.842;2024-02-28T12:12:06;19.97;;;9.83;;
928;SDS011;451;47.988;7.842;2024-02-28T12:21:15;17.33;;;9.43;;
928;SDS011;451;47.988;7.842;2024-02-28T12:30:19;17.63;;;8.97;;
928;SDS011;451;47.988;7.842;2024-02-28T12:58:25;12.23;;;7.83;;
928;SDS011;451;47.988;7.842;2024-02-28T13:08:31;14.70;;;9.23;;
928;SDS011;451;47.988;7.842;2024-02-28T13:17:37;17.77;;;9.20;;
928;SDS011;451;47.988;7.842;2024-02-28T13:26:43;14.40;;;9.10;;
928;SDS011;451;47.988;7.842;2024-02-28T13:35:49;15.33;;;8.10;;
928;SDS011;451;47.988;7.842;2024-02-28T13:44:53;16.50;;;9.97;;
928;SDS011;451;47.988;7.842;2024-02-28T13:54:02;16.10;;;8.27;;
928;SDS011;451;47.988;7.842;2024-02-28T14:03:07;17.23;;;9.30;;
928;SDS011;451;47.988;7.842;2024-02-28T14:12:13;17.90;;;9.37;;
928;SDS011;451;47.988;7.842;2024-02-28T14:21:19;17.53;;;8.53;;
928;SDS011;451;47.988;7.842;2024-02-28T14:30:39;17.60;;;9.20;;
928;SDS011;451;47.988;7.842;2024-02-28T14:39:44;24.90;;;12.47;;
928;SDS011;451;47.988;7.842;2024-02-28T14:48:49;15.53;;;9.37;;
928;SDS011;451;47.988;7.842;2024-02-28T14:57:56;18.23;;;8.00;;
928;SDS011;451;47.988;7.842;2024-02-28T15:07:04;17.13;;;9.33;;
928;SDS011;451;47.988;7.842;2024-02-28T15:16:07;16.40;;;9.40;;
928;SDS011;451;47.988;7.842;2024-02-28T15:25:13;14.23;;;7.07;;
928;SDS011;451;47.988;7.842;2024-02-28T15:34:23;14.87;;;7.93;;
928;SDS011;451;47.988;7.842;2024-02-28T15:43:33;16.17;;;9.60;;
928;SDS011;451;47.988;7.842;2024-02-28T15:52:44;18.70;;;9.97;;
928;SDS011;451;47.988;7.842;2024-02-28T16:01:51;18.73;;;7.77;;
928;SDS011;451;47.988;7.842;2024-02-28T16:10:59;9.90;;;6.73;;
928;SDS011;451;47.988;7.842;2024-02-28T16:20:07;14.30;;;8.70;;
928;SDS011;451;47.988;7.842;2024-02-28T16:29:11;13.40;;;8.07;;
928;SDS011;451;47.988;7.842;2024-02-28T16:38:24;12.77;;;7.30;;
928;SDS011;451;47.988;7.842;2024-02-28T16:47:31;12.90;;;7.30;;
928;SDS011;451;47.988;7.842;2024-02-28T16:56:36;10.03;;;6.40;;
928;SDS011;451;47.988;7.842;2024-02-28T17:05:42;14.00;;;7.40;;
928;SDS011;451;47.988;7.842;2024-02-28T17:14:51;12.77;;;8.47;;
928;SDS011;451;47.988;7.842;2024-02-28T17:23:55;13.23;;;7.87;;
928;SDS011;451;47.988;7.842;2024-02-28T17:33:00;15.37;;;9.40;;
928;SDS011;451;47.988;7.842;2024-02-28T17:42:04;13.27;;;7.60;;
928;SDS011;451;47.988;7.842;2024-02-28T17:51:15;15.23;;;8.83;;
928;SDS011;451;47.988;7.842;2024-02-28T18:00:20;17.73;;;7.53;;
928;SDS011;451;47.988;7.842;2024-02-28T18:09:29;12.97;;;7.70;;
928;SDS011;451;47.988;7.842;2024-02-28T18:18:42;18.83;;;11.07;;
928;SDS011;451;47.988;7.842;2024-02-28T18:27:48;13.43;;;8.23;;
928;SDS011;451;47.988;7.842;2024-02-28T18:36:55;10.53;;;7.20;;
928;SDS011;451;47.988;7.842;2024-02-28T18:46:03;15.80;;;7.27;;
928;SDS011;451;47.988;7.842;2024-02-28T18:55:08;10.77;;;6.10;;
928;SDS011;451;47.988;7.842;2024-02-28T19:04:14;12.98;;;8.25;;
928;SDS011;451;47.988;7.842;2024-02-28T19:13:22;11.77;;;6.63;;
928;SDS011;451;47.988;7.842;2024-02-28T19:22:29;13.93;;;6.80;;
928;SDS011;451;47.988;7.842;2024-02-28T19:31:34;8.57;;;6.00;;
928;SDS011;451;47.988;7.842;2024-02-28T19:40:42;14.13;;;6.37;;
928;SDS011;451;47.988;7.842;2024-02-28T19:49:46;11.47;;;6.67;;
928;SDS011;451;47.988;7.842;2024-02-28T19:58:52;6.80;;;6.20;;
928;SDS011;451;47.988;7.842;2024-02-28T20:08:00;8.93;;;5.93;;
928;SDS011;451;47.988;7.842;2024-02-28T20:36:24;11.50;;;7.10;;
928;SDS011;451;47.988;7.842;2024-02-28T20:45:28;8.90;;;6.57;;
928;SDS011;451;47.988;7.842;2024-02-28T20:54:33;10.90;;;7.30;;
928;SDS011;451;47.988;7.842;2024-02-28T21:03:36;11.33;;;6.80;;
928;SDS011;451;47.988;7.842;2024-02-28T21:12:45;8.57;;;6.00;;
928;SDS011;451;47.988;7.842;2024-02-28T21:21:49;15.77;;;7.90;;
928;SDS011;451;47.988;7.842;2024-02-28T21:30:57;11.30;;;6.27;;
928;SDS011;451;47.988;7.842;2024-02-28T21:40:00;9.03;;;6.23;;
928;SDS011;451;47.988;7.842;2024-02-28T21:49:11;11.03;;;6.10;;
928;SDS011;451;47.988;7.842;2024-02-28T21:58:20;12.93;;;6.30;;
928;SDS011;451;47.988;7.842;2024-02-28T22:07:26;14.10;;;6.03;;
928;SDS011;451;47.988;7.842;2024-02-28T22:16:29;8.53;;;6.07;;
928;SDS011;451;47.988;7.842;2024-02-28T22:25:38;7.37;;;5.87;;
928;SDS011;451;47.988;7.842;2024-02-28T22:34:42;10.37;;;5.97;;
928;SDS011;451;47.988;7.842;2024-02-28T22:43:52;18.70;;;6.00;;
928;SDS011;451;47.988;7.842;2024-02-28T22:52:55;9.70;;;5.00;;
928;SDS011;451;47.988;7.842;2024-02-28T23:02:01;8.33;;;6.27;;
928;SDS011;451;47.988;7.842;2024-02-28T23:11:13;9.53;;;6.40;;
928;SDS011;451;47.988;7.842;2024-02-28T23:20:22;9.20;;;6.40;;
928;SDS011;451;47.988;7.842;2024-02-28T23:29:28;12.90;;;5.07;;
928;SDS011;451;47.988;7.842;2024-02-28T23:38:47;10.30;;;7.20;;
928;SDS011;451;47.988;7.842;2024-02-28T23:47:53;9.60;;;6.70;;
928;SDS011;451;47.988;7.842;2024-02-28T23:56:58;18.57;;;9.00;;
